Huntington Beach, California
Current Conditions -  °F | °C
As of 1:53 AM on Sunday 23 Nov 2014 (Local Time) from KSNA Reporting Station
Clear Clear  
Wind Chill: 15°   Ceiling: Unl
Heat Index: 15°   Visibility: 10mi
Dew Point: 11°   Wind: 3mph
Humidity: 78%   Direction: 50°NE
Pressure: 30.04"   Gusts: NA
Location:  33.68°N, 118°W
Report Text: KSNA 230953Z AUTO 05003KT 10SM CLR 15/11 A3004 RMK AO2 SLP171 T01500111 TSNO
Loading
Personal Weather Stations






























Interactive Weather Map New forecast layout! Learn more

10-Day Weather Forecast

Advertisements
Track Severe Weather on mobile